Date,TemperatureHighF,TemperatureAvgF,TemperatureLowF,DewpointHighF,DewpointAvgF,DewpointLowF,HumidityHigh,HumidityAvg,HumidityLow,PressureMaxIn,PressureMinIn,WindSpeedMaxMPH,WindSpeedAvgMPH,GustSpeedMaxMPH,PrecipitationSumIn
2013-1-1,36,30,16,26,18,6,72,60,46,29.94,29.72,14,2,22,0.01
2013-1-2,30,18,8,17,8,0,81,65,53,30.11,29.91,14,2,20,0.01
2013-1-3,24,12,3,10,0,-6,78,59,33,30.15,30.01,7,1,13,0.00
2013-1-4,38,26,12,24,18,8,91,74,54,30.00,29.82,11,1,20,0.02
2013-1-5,41,32,21,25,21,17,87,65,41,30.27,29.85,8,1,21,0.03
2013-1-6,42,31,21,29,25,18,89,79,57,30.24,29.94,7,1,15,0.02
2013-1-7,38,29,20,29,22,16,93,76,47,30.42,29.96,12,1,15,0.00
2013-1-8,46,33,21,30,26,19,96,77,50,30.38,30.26,10,1,17,0.00
2013-1-9,43,35,21,35,28,20,95,79,55,30.41,30.00,11,1,15,0.00
2013-1-10,46,40,31,29,25,23,75,55,43,30.55,30.03,12,3,22,0.00
2013-1-11,40,33,24,35,28,22,95,81,67,30.53,30.23,3,0,4,0.12
2013-1-12,42,39,36,41,38,35,98,97,95,30.24,30.13,2,0,3,0.02
2013-1-13,51,46,39,49,45,39,100,96,91,30.16,29.99,6,1,12,0.01
2013-1-14,61,51,41,52,43,28,96,76,46,30.26,29.84,9,2,14,0.00
2013-1-15,41,37,32,28,26,24,75,66,56,30.33,30.22,6,0,7,0.00
2013-1-16,33,32,29,31,29,24,96,90,69,30.25,29.83,4,0,6,0.08
2013-1-17,40,33,27,34,27,14,97,80,54,30.10,29.84,7,1,13,0.26
2013-1-18,28,21,16,14,3,-4,63,45,31,30.46,30.07,11,2,23,0.00
2013-1-19,48,36,21,32,22,7,79,59,40,30.40,29.89,13,2,21,0.02
2013-1-20,52,40,28,33,26,10,75,57,36,29.92,29.54,14,3,22,0.00
2013-1-21,28,24,20,20,11,4,91,60,41,30.11,29.81,11,1,18,0.00
2013-1-22,24,19,12,19,8,-1,93,65,40,30.09,29.76,9,2,18,0.01
2013-1-23,16,10,5,0,-6,-10,66,47,33,30.15,30.07,11,2,17,0.00
2013-1-24,19,10,1,-4,-8,-12,62,43,28,30.24,30.07,11,3,23,0.00
2013-1-25,23,15,7,11,-5,-11,79,41,26,30.31,30.08,13,2,16,0.00
2013-1-26,24,16,10,12,3,-6,92,58,31,30.24,30.01,14,2,16,0.00
2013-1-27,30,20,11,4,1,-4,65,46,29,30.47,30.23,9,3,16,0.00
2013-1-28,30,24,17,26,13,2,94,66,35,30.46,30.03,4,0,9,0.00
2013-1-29,33,29,24,31,27,22,95,92,86,30.20,30.03,4,0,4,0.12
2013-1-30,61,48,32,57,46,31,98,94,86,30.16,29.46,13,2,22,0.18
2013-1-31,60,47,30,58,38,15,95,71,43,29.59,28.97,17,4,28,0.57